createdAt,value
2022-09-01T00:00:49.371Z,100914.97
2022-09-01T00:05:57.298Z,100911.75
2022-09-01T00:11:10.614Z,100915.72
2022-09-01T00:16:16.832Z,100911.25
2022-09-01T00:21:34.603Z,100908.47
2022-09-01T00:26:38.684Z,100906.81
2022-09-01T00:31:45.249Z,100903.31
2022-09-01T00:36:51.921Z,100904.31
2022-09-01T00:41:55.720Z,100900.50
2022-09-01T00:47:03.025Z,100903.41
2022-09-01T00:52:12.620Z,100905.34
2022-09-01T00:57:16.995Z,100907.44
2022-09-01T01:02:20.971Z,100906.09
2022-09-01T01:07:27.551Z,100904.75
2022-09-01T01:12:33.253Z,100899.94
2022-09-01T01:17:37.434Z,100896.94
2022-09-01T01:23:10.780Z,100895.41
2022-09-01T01:28:20.080Z,100894.06
2022-09-01T01:33:26.982Z,100897.59
2022-09-01T01:38:39.113Z,100894.91
2022-09-01T01:43:44.537Z,100902.72
2022-09-01T01:48:47.773Z,100904.81
2022-09-01T01:53:53.719Z,100898.34
2022-09-01T01:59:02.498Z,100899.78
2022-09-01T02:04:06.014Z,100888.94
2022-09-01T02:09:09.804Z,100895.94
2022-09-01T02:14:23.146Z,100888.66
2022-09-01T02:19:26.586Z,100885.75
2022-09-01T02:24:32.474Z,100888.97
2022-09-01T02:29:40.204Z,100884.16
2022-09-01T02:34:53.815Z,100885.72
2022-09-01T02:39:58.971Z,100878.22
2022-09-01T02:45:03.944Z,100880.91
2022-09-01T02:50:14.128Z,100875.13
2022-09-01T02:55:22.432Z,100875.69
2022-09-01T03:00:31.642Z,100874.47
2022-09-01T03:05:39.580Z,100880.63
2022-09-01T03:10:45.974Z,100886.47
2022-09-01T03:15:51.408Z,100888.00
2022-09-01T03:20:56.284Z,100884.00
2022-09-01T03:26:09.716Z,100880.13
2022-09-01T03:31:17.231Z,100880.69
2022-09-01T03:36:20.938Z,100889.84
2022-09-01T03:41:28.877Z,100887.91
2022-09-01T03:46:37.122Z,100885.84
2022-09-01T03:51:40.939Z,100886.41
2022-09-01T03:56:46.393Z,100885.56
2022-09-01T04:02:03.586Z,100886.53
2022-09-01T04:07:07.860Z,100873.38
2022-09-01T04:12:20.865Z,100883.09
2022-09-01T04:17:42.929Z,100883.22
2022-09-01T04:22:47.878Z,100886.16
2022-09-01T04:27:56.566Z,100892.38
2022-09-01T04:33:02.882Z,100890.72
2022-09-01T04:38:08.553Z,100889.88
2022-09-01T04:43:15.904Z,100903.59
2022-09-01T04:48:23.919Z,100897.78
2022-09-01T04:53:28.992Z,100899.59
2022-09-01T04:58:35.035Z,100899.44
2022-09-01T05:03:43.474Z,100898.22
2022-09-01T05:08:52.313Z,100901.25
2022-09-01T05:13:57.972Z,100898.03
2022-09-01T05:19:07.372Z,100904.56
2022-09-01T05:24:12.211Z,100911.47
2022-09-01T05:29:21.218Z,100900.22
2022-09-01T05:34:28.242Z,100910.78
2022-09-01T05:39:37.925Z,100916.56
2022-09-01T05:44:44.570Z,100920.13
2022-09-01T05:49:51.569Z,100918.94
2022-09-01T05:55:00.304Z,100917.41
2022-09-01T06:00:11.323Z,100916.84
2022-09-01T06:05:19.725Z,100926.13
2022-09-01T06:10:24.504Z,100933.81
2022-09-01T06:15:29.541Z,100935.53
2022-09-01T06:20:37.688Z,100931.28
2022-09-01T06:25:41.286Z,100939.63
2022-09-01T06:30:45.727Z,100943.16
2022-09-01T06:35:53.207Z,100946.47
2022-09-01T06:41:02.688Z,100951.31
2022-09-01T06:46:06.394Z,100933.97
2022-09-01T06:51:15.939Z,100951.47
2022-09-01T06:56:21.327Z,100942.50
2022-09-01T07:01:27.632Z,100939.94
2022-09-01T07:12:25.433Z,100950.91
2022-09-01T07:17:33.345Z,100933.97
2022-09-01T07:28:10.696Z,100946.03
2022-09-01T07:39:47.278Z,100950.13
2022-09-01T07:44:05.415Z,100949.56
2022-09-01T07:54:37.576Z,100950.47
2022-09-01T07:59:43.041Z,100957.44
2022-09-01T08:04:49.423Z,100957.09
2022-09-01T08:09:56.016Z,100969.16
2022-09-01T08:15:37.945Z,100964.66
2022-09-01T08:20:30.500Z,100958.16
2022-09-01T08:25:38.509Z,100950.16
2022-09-01T08:30:52.110Z,100953.84
2022-09-01T08:35:57.730Z,100959.25
2022-09-01T08:41:03.777Z,100967.28
2022-09-01T08:46:15.473Z,100960.84
2022-09-01T08:51:27.324Z,100964.03
2022-09-01T08:56:43.181Z,100955.69
2022-09-01T09:01:55.629Z,100962.84
2022-09-01T09:07:09.060Z,100956.22
2022-09-01T09:12:49.045Z,100957.78
2022-09-01T09:18:06.930Z,100958.63
2022-09-01T09:23:31.310Z,100962.19
2022-09-01T09:28:36.543Z,100951.63
2022-09-01T09:33:52.157Z,100943.09
2022-09-01T09:39:12.405Z,100941.16
2022-09-01T09:44:27.715Z,100939.59
2022-09-01T09:49:42.263Z,100935.31
2022-09-01T09:55:19.991Z,100936.44
2022-09-01T10:00:27.007Z,100935.91
2022-09-01T10:05:38.492Z,100924.13
2022-09-01T10:10:44.350Z,100926.53
2022-09-01T10:15:54.600Z,100923.88
2022-09-01T10:21:04.222Z,100920.09
2022-09-01T10:26:13.088Z,100926.47
2022-09-01T10:31:20.371Z,100918.28
2022-09-01T10:36:25.204Z,100917.88
2022-09-01T10:42:00.769Z,100920.97
2022-09-01T10:47:14.626Z,100915.91
2022-09-01T10:52:57.586Z,100906.66
2022-09-01T11:04:00.741Z,100899.44
2022-09-01T11:09:07.956Z,100897.38
2022-09-01T11:14:20.013Z,100898.47
2022-09-01T11:19:46.995Z,100913.25
2022-09-01T11:25:44.714Z,100901.19
2022-09-01T11:30:57.803Z,100902.38
2022-09-01T11:36:06.197Z,100903.03
2022-09-01T11:41:09.679Z,100895.81
2022-09-01T11:46:22.594Z,100896.81
2022-09-01T11:51:28.718Z,100902.56
2022-09-01T11:56:32.155Z,100902.97
2022-09-01T12:01:37.570Z,100893.53
2022-09-01T12:06:54.987Z,100894.94
2022-09-01T12:11:59.636Z,100893.47
2022-09-01T12:17:35.382Z,100890.03
2022-09-01T12:22:48.067Z,100897.50
2022-09-01T12:27:52.225Z,100902.16
2022-09-01T12:38:35.801Z,100886.41
2022-09-01T12:43:43.201Z,100884.53
2022-09-01T12:48:49.925Z,100883.72
2022-09-01T12:54:04.500Z,100882.28
2022-09-01T12:59:14.168Z,100871.16
2022-09-01T13:04:31.226Z,100873.09
2022-09-01T13:09:36.741Z,100862.41
2022-09-01T13:14:40.530Z,100855.47
2022-09-01T13:19:46.130Z,100852.78
2022-09-01T13:24:51.080Z,100841.75
2022-09-01T13:29:54.957Z,100838.34
2022-09-01T13:34:58.352Z,100841.06
2022-09-01T13:40:04.363Z,100832.91
2022-09-01T13:45:09.632Z,100822.41
2022-09-01T13:50:23.172Z,100834.09
2022-09-01T13:55:31.859Z,100826.88
2022-09-01T14:00:40.869Z,100820.94
2022-09-01T14:05:46.648Z,100819.06
2022-09-01T14:10:55.126Z,100810.22
2022-09-01T14:16:04.731Z,100817.34
2022-09-01T14:21:15.302Z,100817.28
2022-09-01T14:26:22.928Z,100813.59
2022-09-01T14:31:32.032Z,100812.31
2022-09-01T14:36:35.248Z,100806.75
2022-09-01T14:41:40.659Z,100813.09
2022-09-01T14:46:44.310Z,100810.78
2022-09-01T14:57:37.701Z,100794.78
2022-09-01T15:02:39.205Z,100788.19
2022-09-01T15:07:44.804Z,100791.28
2022-09-01T15:12:58.248Z,100788.44
2022-09-01T15:18:03.996Z,100785.72
2022-09-01T15:23:08.114Z,100786.56
2022-09-01T15:28:14.133Z,100784.75
2022-09-01T15:33:17.953Z,100776.69
2022-09-01T15:38:21.789Z,100779.59
2022-09-01T15:43:30.742Z,100775.69
2022-09-01T15:48:34.620Z,100783.84
2022-09-01T15:53:38.692Z,100764.13
2022-09-01T15:59:01.301Z,100762.03
2022-09-01T16:04:08.875Z,100764.94
2022-09-01T16:09:13.810Z,100765.66
2022-09-01T16:14:23.828Z,100759.66
2022-09-01T16:19:46.946Z,100769.22
2022-09-01T16:24:55.114Z,100767.56
2022-09-01T16:30:07.487Z,100767.06
2022-09-01T16:35:11.183Z,100760.28
2022-09-01T16:40:30.094Z,100758.56
2022-09-01T16:46:01.895Z,100760.38
2022-09-01T16:51:15.894Z,100757.22
2022-09-01T16:56:29.018Z,100760.03
2022-09-01T17:01:48.550Z,100754.00
2022-09-01T17:07:00.193Z,100750.00
2022-09-01T17:12:34.249Z,100749.94
2022-09-01T17:17:46.491Z,100755.03
2022-09-01T17:22:57.770Z,100759.44
2022-09-01T17:28:07.174Z,100764.91
2022-09-01T17:33:23.540Z,100771.63
2022-09-01T17:38:31.992Z,100768.69
2022-09-01T17:43:48.511Z,100779.09
2022-09-01T17:49:01.279Z,100782.44
2022-09-01T17:54:27.439Z,100783.09
2022-09-01T17:59:41.772Z,100786.94
2022-09-01T18:05:24.558Z,100791.19
2022-09-01T18:10:44.403Z,100803.19
2022-09-01T18:16:11.648Z,100801.91
2022-09-01T18:21:33.137Z,100807.03
2022-09-01T18:26:43.476Z,100805.81
2022-09-01T18:32:10.111Z,100810.41
2022-09-01T18:37:22.625Z,100815.13
2022-09-01T18:42:41.576Z,100821.88
2022-09-01T18:47:57.172Z,100816.63
2022-09-01T18:53:16.348Z,100819.81
2022-09-01T18:58:33.575Z,100821.06
2022-09-01T19:03:41.532Z,100825.41
2022-09-01T19:08:54.491Z,100826.31
2022-09-01T19:14:04.733Z,100826.53
2022-09-01T19:19:24.083Z,100834.56
2022-09-01T19:24:37.678Z,100830.13
2022-09-01T19:29:53.031Z,100829.97
2022-09-01T19:35:02.352Z,100827.53
2022-09-01T19:40:12.086Z,100841.66
2022-09-01T19:45:28.264Z,100838.22
2022-09-01T19:50:40.932Z,100835.25
2022-09-01T19:55:54.628Z,100844.44
2022-09-01T20:01:02.301Z,100837.81
2022-09-01T20:06:10.397Z,100840.31
2022-09-01T20:11:22.030Z,100842.19
2022-09-01T20:16:31.585Z,100837.38
2022-09-01T20:21:41.875Z,100841.53
2022-09-01T20:26:57.842Z,100838.38
2022-09-01T20:32:04.446Z,100844.69
2022-09-01T20:37:15.004Z,100841.69
2022-09-01T20:42:31.848Z,100841.72
2022-09-01T20:47:38.367Z,100851.84
2022-09-01T20:52:57.300Z,100854.97
2022-09-01T20:58:09.121Z,100849.84
2022-09-01T21:03:21.139Z,100851.63
2022-09-01T21:08:49.217Z,100856.94
2022-09-01T21:14:05.157Z,100853.47
2022-09-01T21:19:24.993Z,100856.25
2022-09-01T21:24:30.942Z,100855.41
2022-09-01T21:29:55.504Z,100848.47
2022-09-01T21:35:05.591Z,100851.22
2022-09-01T21:40:12.397Z,100844.09
2022-09-01T21:45:20.736Z,100843.59
2022-09-01T21:50:27.691Z,100844.25
2022-09-01T21:55:32.681Z,100846.56
2022-09-01T22:00:41.633Z,100843.72
2022-09-01T22:05:46.740Z,100843.34
2022-09-01T22:10:58.011Z,100843.13
2022-09-01T22:16:05.666Z,100836.97
2022-09-01T22:21:12.523Z,100842.91
2022-09-01T22:26:21.403Z,100842.53
2022-09-01T22:31:28.324Z,100838.03
2022-09-01T22:36:35.308Z,100839.66
2022-09-01T22:41:40.153Z,100841.53
2022-09-01T22:46:48.404Z,100837.75
2022-09-01T22:51:52.892Z,100834.03
2022-09-01T22:56:59.552Z,100838.00
2022-09-01T23:02:05.352Z,100837.25
2022-09-01T23:07:09.312Z,100831.28
2022-09-01T23:12:13.745Z,100833.44
2022-09-01T23:17:22.763Z,100833.91
2022-09-01T23:22:28.211Z,100833.06
2022-09-01T23:27:32.363Z,100831.34
2022-09-01T23:32:37.968Z,100831.28
2022-09-01T23:37:44.219Z,100828.03
2022-09-01T23:42:49.298Z,100824.50
2022-09-01T23:47:55.665Z,100824.50
2022-09-01T23:52:59.748Z,100813.06
2022-09-01T23:58:03.695Z,100820.59
